createdAt,value
2018-11-10T00:00:33.121Z,1001.94
2018-11-10T00:04:33.161Z,1001.88
2018-11-10T00:05:33.175Z,1001.85
2018-11-10T00:06:33.221Z,1001.87
2018-11-10T00:07:33.219Z,1001.79
2018-11-10T00:08:33.651Z,1001.82
2018-11-10T00:09:33.223Z,1001.77
2018-11-10T00:10:33.231Z,1001.80
2018-11-10T00:11:33.413Z,1001.78
2018-11-10T00:12:33.261Z,1001.77
2018-11-10T00:13:33.265Z,1001.76
2018-11-10T00:14:33.278Z,1001.73
2018-11-10T00:15:33.344Z,1001.74
2018-11-10T00:16:33.746Z,1001.73
2018-11-10T00:18:33.885Z,1001.65
2018-11-10T00:19:33.345Z,1001.64
2018-11-10T00:20:33.357Z,1001.63
2018-11-10T00:21:33.359Z,1001.65
2018-11-10T00:22:33.435Z,1001.61
2018-11-10T00:23:33.421Z,1001.62
2018-11-10T00:24:33.402Z,1001.61
2018-11-10T00:25:33.410Z,1001.60
2018-11-10T00:26:33.417Z,1001.61
2018-11-10T00:27:33.432Z,1001.58
2018-11-10T00:28:33.440Z,1001.57
2018-11-10T00:29:33.457Z,1001.55
2018-11-10T00:30:33.463Z,1001.56
2018-11-10T00:31:33.477Z,1001.50
2018-11-10T00:32:33.485Z,1001.51
2018-11-10T00:33:33.531Z,1001.53
2018-11-10T00:34:33.523Z,1001.47
2018-11-10T00:35:33.537Z,1001.49
2018-11-10T00:36:33.538Z,1001.47
2018-11-10T00:37:33.555Z,1001.49
2018-11-10T00:38:33.556Z,1001.48
2018-11-10T00:39:33.597Z,1001.44
2018-11-10T00:40:33.583Z,1001.41
2018-11-10T00:41:33.640Z,1001.42
2018-11-10T00:42:33.603Z,1001.45
2018-11-10T00:44:33.864Z,1001.44
2018-11-10T00:45:33.792Z,1001.41
2018-11-10T00:46:33.660Z,1001.40
2018-11-10T00:47:33.663Z,1001.34
2018-11-10T00:48:33.694Z,1001.32
2018-11-10T00:49:33.689Z,1001.37
2018-11-10T00:50:33.704Z,1001.34
2018-11-10T00:51:33.715Z,1001.32
2018-11-10T00:52:33.725Z,1001.32
2018-11-10T00:53:33.732Z,1001.27
2018-11-10T00:54:33.743Z,1001.30
2018-11-10T00:55:33.758Z,1001.27
2018-11-10T00:56:33.767Z,1001.29
2018-11-10T00:57:33.870Z,1001.27
2018-11-10T00:58:33.792Z,1001.29
2018-11-10T00:59:33.820Z,1001.24
2018-11-10T01:00:33.818Z,1001.22
2018-11-10T01:01:33.827Z,1001.22
2018-11-10T01:02:33.837Z,1001.23
2018-11-10T01:03:33.847Z,1001.22
2018-11-10T01:04:33.863Z,1001.23
2018-11-10T01:05:33.921Z,1001.21
2018-11-10T01:06:33.889Z,1001.16
2018-11-10T01:07:34.446Z,1001.12
2018-11-10T01:08:33.915Z,1001.14
2018-11-10T01:09:33.936Z,1001.14
2018-11-10T01:10:33.930Z,1001.13
2018-11-10T01:11:33.942Z,1001.07
2018-11-10T01:12:33.973Z,1001.13
2018-11-10T01:14:34.088Z,1001.11
2018-11-10T01:17:34.623Z,1001.04
2018-11-10T01:18:34.030Z,1001.07
2018-11-10T01:19:34.034Z,1001.09
2018-11-10T01:20:34.100Z,1001.02
2018-11-10T01:21:34.059Z,1001.04
2018-11-10T01:22:34.161Z,1001.02
2018-11-10T01:23:34.113Z,1001.00
2018-11-10T01:24:34.093Z,1000.96
2018-11-10T01:25:34.109Z,1001.00
2018-11-10T01:26:34.120Z,1001.00
2018-11-10T01:27:34.139Z,1000.98
2018-11-10T01:28:34.144Z,1000.98
2018-11-10T01:29:34.177Z,1000.97
2018-11-10T01:30:34.207Z,1000.99
2018-11-10T01:31:34.188Z,1000.99
2018-11-10T01:32:34.200Z,1000.97
2018-11-10T01:33:34.199Z,1000.94
2018-11-10T01:34:34.216Z,1000.92
2018-11-10T01:35:34.222Z,1000.89
2018-11-10T01:36:34.232Z,1000.88
2018-11-10T01:37:34.245Z,1000.89
2018-11-10T01:38:34.258Z,1000.86
2018-11-10T01:39:34.268Z,1000.85
2018-11-10T01:40:34.300Z,1000.83
2018-11-10T01:41:34.946Z,1000.82
2018-11-10T01:42:34.304Z,1000.79
2018-11-10T01:43:34.875Z,1000.81
2018-11-10T01:46:35.025Z,1000.78
2018-11-10T01:47:35.219Z,1000.79
2018-11-10T01:48:34.748Z,1000.73
2018-11-10T01:49:34.385Z,1000.72
2018-11-10T01:50:34.398Z,1000.70
2018-11-10T01:51:34.418Z,1000.70
2018-11-10T01:52:34.422Z,1000.66
2018-11-10T01:53:34.493Z,1000.66
2018-11-10T01:54:34.483Z,1000.63
2018-11-10T01:55:34.508Z,1000.61
2018-11-10T01:56:34.469Z,1000.57
2018-11-10T01:57:34.477Z,1000.59
2018-11-10T01:58:34.493Z,1000.53
2018-11-10T01:59:34.518Z,1000.50
2018-11-10T02:00:34.514Z,1000.47
2018-11-10T02:01:34.525Z,1000.48
2018-11-10T02:02:34.536Z,1000.41
2018-11-10T02:03:34.649Z,1000.45
2018-11-10T02:04:34.565Z,1000.43
2018-11-10T02:05:34.576Z,1000.47
2018-11-10T02:06:35.589Z,1000.43
2018-11-10T02:07:34.596Z,1000.42
2018-11-10T02:08:34.614Z,1000.33
2018-11-10T02:09:34.624Z,1000.38
2018-11-10T02:10:34.634Z,1000.34
2018-11-10T02:11:34.652Z,1000.30
2018-11-10T02:12:34.667Z,1000.35
2018-11-10T02:13:34.672Z,1000.29
2018-11-10T02:14:34.688Z,1000.32
2018-11-10T02:15:34.696Z,1000.31
2018-11-10T02:16:34.753Z,1000.34
2018-11-10T02:17:34.715Z,1000.31
2018-11-10T02:18:34.728Z,1000.29
2018-11-10T02:19:34.740Z,1000.24
2018-11-10T02:20:34.762Z,1000.22
2018-11-10T02:21:34.771Z,1000.24
2018-11-10T02:22:34.785Z,1000.22
2018-11-10T02:23:34.788Z,1000.18
2018-11-10T02:24:34.903Z,1000.17
2018-11-10T02:25:34.824Z,1000.17
2018-11-10T02:26:34.819Z,1000.20
2018-11-10T02:27:34.834Z,1000.20
2018-11-10T02:28:34.843Z,1000.18
2018-11-10T02:29:34.878Z,1000.20
2018-11-10T02:30:34.867Z,1000.15
2018-11-10T02:31:34.896Z,1000.14
2018-11-10T02:32:34.946Z,1000.10
2018-11-10T02:33:34.902Z,1000.07
2018-11-10T02:34:34.918Z,1000.08
2018-11-10T02:35:34.930Z,1000.04
2018-11-10T02:36:34.939Z,999.97
2018-11-10T02:37:34.949Z,999.99
2018-11-10T02:38:34.993Z,999.96
2018-11-10T02:39:34.977Z,999.95
2018-11-10T02:40:34.993Z,999.92
2018-11-10T02:41:34.995Z,999.94
2018-11-10T02:42:35.025Z,999.91
2018-11-10T02:43:35.443Z,999.90
2018-11-10T02:44:35.365Z,999.86
2018-11-10T02:45:35.045Z,999.86
2018-11-10T02:46:35.056Z,999.87
2018-11-10T02:47:35.079Z,999.89
2018-11-10T02:48:35.085Z,999.88
2018-11-10T02:53:35.581Z,999.80
2018-11-10T02:54:35.172Z,999.76
2018-11-10T02:55:35.168Z,999.82
2018-11-10T02:56:35.173Z,999.77
2018-11-10T02:57:35.184Z,999.75
2018-11-10T02:58:35.197Z,999.77
2018-11-10T02:59:35.226Z,999.72
2018-11-10T03:00:35.218Z,999.75
2018-11-10T03:01:35.226Z,999.74
2018-11-10T03:02:35.247Z,999.71
2018-11-10T03:03:35.255Z,999.71
2018-11-10T03:04:35.269Z,999.66
2018-11-10T03:05:35.277Z,999.65
2018-11-10T03:06:35.303Z,999.58
2018-11-10T03:07:35.297Z,999.60
2018-11-10T03:08:35.309Z,999.53
2018-11-10T03:09:35.321Z,999.51
2018-11-10T03:10:35.347Z,999.52
2018-11-10T03:11:35.344Z,999.49
2018-11-10T03:12:35.362Z,999.48
2018-11-10T03:13:35.371Z,999.44
2018-11-10T03:14:35.384Z,999.45
2018-11-10T03:15:35.411Z,999.46
2018-11-10T03:16:35.479Z,999.47
2018-11-10T03:17:35.420Z,999.38
2018-11-10T03:18:35.434Z,999.36
2018-11-10T03:19:35.440Z,999.39
2018-11-10T03:20:35.452Z,999.36
2018-11-10T03:21:35.583Z,999.37
2018-11-10T03:25:36.241Z,999.27
2018-11-10T03:26:35.551Z,999.23
2018-11-10T03:27:35.536Z,999.25
2018-11-10T03:28:35.553Z,999.24
2018-11-10T03:29:35.558Z,999.24
2018-11-10T03:30:35.594Z,999.22
2018-11-10T03:31:35.585Z,999.18
2018-11-10T03:32:35.596Z,999.20
2018-11-10T03:33:35.607Z,999.18
2018-11-10T03:34:35.632Z,999.16
2018-11-10T03:35:35.630Z,999.17
2018-11-10T03:36:35.656Z,999.15
2018-11-10T03:37:35.653Z,999.10
2018-11-10T03:38:35.672Z,999.14
2018-11-10T03:39:35.678Z,999.11
2018-11-10T03:40:35.694Z,999.06
2018-11-10T03:41:35.811Z,999.07
2018-11-10T03:42:35.714Z,999.07
2018-11-10T03:43:35.725Z,998.99
2018-11-10T03:44:35.755Z,998.94
2018-11-10T03:45:35.807Z,998.96
2018-11-10T03:46:35.766Z,998.95
2018-11-10T03:47:35.783Z,998.99
2018-11-10T03:48:35.797Z,998.97
2018-11-10T03:49:35.804Z,998.99
2018-11-10T03:50:35.815Z,998.97
2018-11-10T03:51:35.828Z,998.98
2018-11-10T03:52:35.839Z,998.96
2018-11-10T03:53:35.897Z,998.94
2018-11-10T03:54:36.224Z,998.91
2018-11-10T03:55:35.882Z,998.93
2018-11-10T03:57:35.913Z,998.95
2018-11-10T03:58:36.007Z,998.92
2018-11-10T03:59:35.934Z,998.91
2018-11-10T04:00:35.944Z,998.91
2018-11-10T04:02:36.005Z,998.90
2018-11-10T04:03:35.974Z,998.90
2018-11-10T04:04:35.982Z,998.88
2018-11-10T04:05:35.996Z,998.87
2018-11-10T04:06:36.005Z,998.85
2018-11-10T04:07:36.017Z,998.84
2018-11-10T04:08:36.036Z,998.80
2018-11-10T04:09:36.091Z,998.82
2018-11-10T04:10:36.059Z,998.77
2018-11-10T04:11:36.183Z,998.78
2018-11-10T04:12:36.078Z,998.76
2018-11-10T04:13:36.089Z,998.73
2018-11-10T04:14:36.102Z,998.68
2018-11-10T04:15:36.114Z,998.68
2018-11-10T04:16:36.129Z,998.67
2018-11-10T04:17:36.136Z,998.68
2018-11-10T04:19:36.163Z,998.62
2018-11-10T04:20:36.176Z,998.64
2018-11-10T04:21:36.191Z,998.60
2018-11-10T04:22:36.198Z,998.67
2018-11-10T04:23:36.326Z,998.64
2018-11-10T04:24:36.220Z,998.65
2018-11-10T04:25:36.288Z,998.65
2018-11-10T04:26:36.685Z,998.63
2018-11-10T04:27:36.258Z,998.57
2018-11-10T04:29:36.739Z,998.51
2018-11-10T04:30:36.294Z,998.45
2018-11-10T04:31:36.371Z,998.49
2018-11-10T04:32:36.331Z,998.49
2018-11-10T04:33:36.329Z,998.46
2018-11-10T04:34:36.355Z,998.44
2018-11-10T04:35:36.363Z,998.43
2018-11-10T04:36:36.377Z,998.45
2018-11-10T04:37:36.382Z,998.47
2018-11-10T04:38:36.485Z,998.40
2018-11-10T04:39:36.427Z,998.40
2018-11-10T04:40:36.413Z,998.36
2018-11-10T04:41:36.426Z,998.32
2018-11-10T04:42:36.533Z,998.32
2018-11-10T04:43:36.479Z,998.31
2018-11-10T04:44:36.477Z,998.29
2018-11-10T04:45:36.479Z,998.29
2018-11-10T04:46:36.490Z,998.22
2018-11-10T04:47:36.497Z,998.21
2018-11-10T04:48:36.512Z,998.23
2018-11-10T04:49:36.532Z,998.21
2018-11-10T04:50:36.534Z,998.22
2018-11-10T04:51:36.547Z,998.20
2018-11-10T04:52:36.560Z,998.21
2018-11-10T04:53:36.570Z,998.19
2018-11-10T04:54:36.586Z,998.16
2018-11-10T04:55:36.631Z,998.15
2018-11-10T04:56:36.609Z,998.14
2018-11-10T04:57:36.619Z,998.14
2018-11-10T04:58:36.637Z,998.09
2018-11-10T04:59:36.970Z,998.15
2018-11-10T05:00:36.800Z,998.17
2018-11-10T05:01:36.728Z,998.15
2018-11-10T05:02:36.679Z,998.13
2018-11-10T05:03:36.702Z,998.11
2018-11-10T05:04:36.711Z,998.13
2018-11-10T05:05:36.745Z,998.08
2018-11-10T05:06:36.747Z,998.04
2018-11-10T05:07:36.767Z,998.08
2018-11-10T05:08:36.757Z,998.07
2018-11-10T05:09:36.764Z,998.03
2018-11-10T05:10:36.781Z,998.02
2018-11-10T05:11:36.791Z,997.99
2018-11-10T05:12:36.799Z,998.04
2018-11-10T05:13:36.966Z,998.02
2018-11-10T05:14:36.824Z,997.96
2018-11-10T05:15:36.843Z,997.95
2018-11-10T05:16:36.850Z,997.97
2018-11-10T05:17:36.862Z,997.94
2018-11-10T05:18:36.884Z,997.97
2018-11-10T05:19:36.893Z,997.96
2018-11-10T05:20:36.907Z,997.95
2018-11-10T05:21:37.148Z,997.94
2018-11-10T05:22:36.927Z,997.93
2018-11-10T05:23:36.938Z,997.94
2018-11-10T05:24:36.951Z,997.91
2018-11-10T05:25:36.960Z,997.93
2018-11-10T05:26:36.971Z,997.91
2018-11-10T05:27:36.988Z,997.90
2018-11-10T05:28:37.016Z,997.91
2018-11-10T05:29:37.007Z,997.94
2018-11-10T05:31:37.261Z,997.95
2018-11-10T05:32:37.454Z,997.89
2018-11-10T05:33:37.057Z,997.89
2018-11-10T05:34:37.068Z,997.91
2018-11-10T05:35:37.081Z,997.87
2018-11-10T05:36:37.101Z,997.92
2018-11-10T05:37:37.105Z,997.87
2018-11-10T05:38:37.117Z,997.91
2018-11-10T05:39:37.129Z,997.88
2018-11-10T05:40:37.142Z,997.89
2018-11-10T05:41:37.155Z,997.90
2018-11-10T05:42:37.360Z,997.83
2018-11-10T05:43:37.183Z,997.81
2018-11-10T05:44:37.302Z,997.80
2018-11-10T05:45:37.207Z,997.86
2018-11-10T05:46:37.222Z,997.81
2018-11-10T05:47:37.229Z,997.90
2018-11-10T05:48:37.239Z,997.86
2018-11-10T05:49:37.251Z,997.89
2018-11-10T05:50:37.264Z,997.93
2018-11-10T05:51:37.375Z,997.90
2018-11-10T05:52:37.314Z,997.89
2018-11-10T05:53:37.299Z,997.92
2018-11-10T05:54:37.335Z,997.92
2018-11-10T05:56:37.336Z,997.95
2018-11-10T05:57:37.352Z,997.91
2018-11-10T05:58:37.361Z,997.90
2018-11-10T05:59:37.408Z,997.90
2018-11-10T06:00:37.390Z,997.89
2018-11-10T06:02:37.418Z,997.92
2018-11-10T06:03:37.437Z,997.88
2018-11-10T06:04:37.437Z,997.85
2018-11-10T06:05:37.449Z,997.80
2018-11-10T06:06:37.466Z,997.82
2018-11-10T06:07:37.477Z,997.86
2018-11-10T06:08:37.490Z,997.86
2018-11-10T06:09:37.540Z,997.84
2018-11-10T06:10:37.561Z,997.83
2018-11-10T06:11:37.556Z,997.82
2018-11-10T06:12:37.571Z,997.86
2018-11-10T06:13:37.938Z,997.84
2018-11-10T06:14:37.562Z,997.89
2018-11-10T06:15:37.583Z,997.92
2018-11-10T06:16:37.599Z,997.92
2018-11-10T06:17:37.598Z,997.86
2018-11-10T06:18:37.626Z,997.93
2018-11-10T06:19:37.621Z,997.92
2018-11-10T06:20:37.633Z,997.91
2018-11-10T06:21:37.644Z,997.92
2018-11-10T06:22:37.657Z,997.94
2018-11-10T06:23:37.668Z,997.96
2018-11-10T06:24:37.681Z,997.92
2018-11-10T06:25:37.694Z,997.92
2018-11-10T06:26:37.711Z,997.98
2018-11-10T06:27:37.721Z,998.02
2018-11-10T06:29:37.742Z,998.05
2018-11-10T06:30:37.755Z,998.05
2018-11-10T06:31:37.775Z,998.07
2018-11-10T06:33:38.260Z,998.10
2018-11-10T06:34:38.247Z,998.11
2018-11-10T06:35:37.826Z,998.10
2018-11-10T06:36:37.828Z,998.10
2018-11-10T06:37:37.841Z,998.07
2018-11-10T06:38:38.058Z,998.09
2018-11-10T06:39:37.923Z,998.06
2018-11-10T06:40:37.909Z,998.10
2018-11-10T06:41:37.910Z,998.08
2018-11-10T06:42:37.904Z,998.13
2018-11-10T06:43:37.984Z,998.16
2018-11-10T06:44:37.952Z,998.15
2018-11-10T06:45:37.998Z,998.16
2018-11-10T06:46:37.974Z,998.16
2018-11-10T06:47:37.967Z,998.16
2018-11-10T06:48:37.977Z,998.21
2018-11-10T06:49:37.994Z,998.19
2018-11-10T06:50:38.020Z,998.22
2018-11-10T06:51:38.025Z,998.22
2018-11-10T06:52:38.081Z,998.28
2018-11-10T06:53:38.049Z,998.30
2018-11-10T06:54:38.059Z,998.29
2018-11-10T06:55:38.069Z,998.27
2018-11-10T06:56:38.094Z,998.31
2018-11-10T06:57:38.090Z,998.30
2018-11-10T06:58:38.107Z,998.29
2018-11-10T06:59:38.115Z,998.30
2018-11-10T07:00:38.127Z,998.35
2018-11-10T07:01:38.155Z,998.32
2018-11-10T07:02:38.320Z,998.29
2018-11-10T07:03:38.568Z,998.30
2018-11-10T07:04:38.210Z,998.29
2018-11-10T07:05:38.189Z,998.31
2018-11-10T07:06:38.223Z,998.29
2018-11-10T07:07:38.231Z,998.28
2018-11-10T07:08:38.303Z,998.31
2018-11-10T07:09:38.324Z,998.30
2018-11-10T07:10:38.262Z,998.25
2018-11-10T07:11:38.266Z,998.30
2018-11-10T07:12:38.290Z,998.28
2018-11-10T07:13:38.303Z,998.28
2018-11-10T07:14:38.307Z,998.25
2018-11-10T07:15:38.316Z,998.26
2018-11-10T07:16:38.353Z,998.25
2018-11-10T07:17:38.452Z,998.26
2018-11-10T07:18:38.351Z,998.29
2018-11-10T07:19:38.371Z,998.25
2018-11-10T07:20:38.374Z,998.34
2018-11-10T07:21:38.392Z,998.34
2018-11-10T07:22:38.409Z,998.39
2018-11-10T07:23:38.417Z,998.40
2018-11-10T07:24:38.458Z,998.40
2018-11-10T07:25:38.458Z,998.48
2018-11-10T07:26:38.466Z,998.49
2018-11-10T07:27:38.467Z,998.51
2018-11-10T07:28:38.476Z,998.52
2018-11-10T07:29:38.499Z,998.50
2018-11-10T07:30:38.615Z,998.51
2018-11-10T07:34:38.982Z,998.49
2018-11-10T07:35:38.566Z,998.49
2018-11-10T07:36:38.572Z,998.55
2018-11-10T07:37:38.676Z,998.56
2018-11-10T07:38:38.606Z,998.51
2018-11-10T07:39:38.643Z,998.52
2018-11-10T07:40:38.627Z,998.55
2018-11-10T07:41:38.653Z,998.55
2018-11-10T07:42:38.668Z,998.56
2018-11-10T07:43:38.666Z,998.57
2018-11-10T07:44:38.681Z,998.60
2018-11-10T07:45:38.702Z,998.60
2018-11-10T07:46:38.714Z,998.61
2018-11-10T07:47:38.710Z,998.61
2018-11-10T07:48:38.732Z,998.56
2018-11-10T07:49:38.739Z,998.56
2018-11-10T07:50:38.761Z,998.59
2018-11-10T07:51:38.797Z,998.62
2018-11-10T07:52:38.777Z,998.62
2018-11-10T07:53:38.791Z,998.62
2018-11-10T07:54:38.811Z,998.65
2018-11-10T07:55:38.810Z,998.66
2018-11-10T07:56:38.836Z,998.66
2018-11-10T07:57:38.855Z,998.62
2018-11-10T07:58:38.918Z,998.61
2018-11-10T07:59:38.863Z,998.60
2018-11-10T08:00:38.881Z,998.64
2018-11-10T08:01:38.887Z,998.66
2018-11-10T08:02:38.904Z,998.64
2018-11-10T08:03:38.912Z,998.64
2018-11-10T08:04:38.922Z,998.63
2018-11-10T08:05:38.934Z,998.65
2018-11-10T08:06:38.952Z,998.63
2018-11-10T08:07:38.972Z,998.65
2018-11-10T08:08:38.998Z,998.63
2018-11-10T08:09:38.982Z,998.63
2018-11-10T08:10:38.995Z,998.64
2018-11-10T08:11:39.046Z,998.69
2018-11-10T08:12:39.022Z,998.67
2018-11-10T08:13:39.036Z,998.70
2018-11-10T08:14:39.046Z,998.66
2018-11-10T08:15:39.058Z,998.68
2018-11-10T08:16:39.083Z,998.64
2018-11-10T08:17:39.088Z,998.67
2018-11-10T08:18:39.190Z,998.65
2018-11-10T08:19:39.120Z,998.59
2018-11-10T08:20:39.129Z,998.65
2018-11-10T08:21:39.178Z,998.62
2018-11-10T08:22:39.159Z,998.62
2018-11-10T08:23:39.161Z,998.61
2018-11-10T08:24:39.179Z,998.60
2018-11-10T08:25:39.183Z,998.64
2018-11-10T08:26:39.196Z,998.60
2018-11-10T08:27:39.211Z,998.61
2018-11-10T08:28:39.243Z,998.61
2018-11-10T08:29:39.233Z,998.56
2018-11-10T08:30:39.307Z,998.59
2018-11-10T08:31:39.259Z,998.58
2018-11-10T08:32:39.299Z,998.54
2018-11-10T08:33:39.282Z,998.55
2018-11-10T08:34:40.067Z,998.55
2018-11-10T08:35:39.918Z,998.61
2018-11-10T08:36:39.522Z,998.59
2018-11-10T08:37:39.375Z,998.58
2018-11-10T08:38:39.673Z,998.58
2018-11-10T08:39:39.534Z,998.62
2018-11-10T08:40:39.368Z,998.66
2018-11-10T08:41:39.384Z,998.64
2018-11-10T08:42:39.425Z,998.65
2018-11-10T08:43:39.409Z,998.70
2018-11-10T08:44:39.417Z,998.70
2018-11-10T08:45:39.538Z,998.70
2018-11-10T08:46:39.448Z,998.68
2018-11-10T08:47:39.567Z,998.69
2018-11-10T08:48:40.148Z,998.68
2018-11-10T08:49:39.481Z,998.67
2018-11-10T08:50:39.496Z,998.70
2018-11-10T08:51:39.504Z,998.73
2018-11-10T08:52:39.535Z,998.67
2018-11-10T08:53:39.532Z,998.70
2018-11-10T08:54:39.542Z,998.68
2018-11-10T08:55:39.655Z,998.70
2018-11-10T08:56:39.580Z,998.70
2018-11-10T08:57:39.666Z,998.67
2018-11-10T08:58:39.598Z,998.65
2018-11-10T08:59:39.604Z,998.66
2018-11-10T09:00:39.619Z,998.62
2018-11-10T09:01:39.635Z,998.62
2018-11-10T09:02:39.645Z,998.64
2018-11-10T09:03:39.675Z,998.59
2018-11-10T09:04:39.679Z,998.61
2018-11-10T09:05:39.685Z,998.57
2018-11-10T09:06:39.703Z,998.52
2018-11-10T09:07:39.714Z,998.55
2018-11-10T09:08:39.718Z,998.54
2018-11-10T09:09:39.783Z,998.50
2018-11-10T09:10:39.762Z,998.51
2018-11-10T09:11:39.783Z,998.52
2018-11-10T09:12:39.826Z,998.50
2018-11-10T09:13:39.981Z,998.52
2018-11-10T09:14:39.795Z,998.57
2018-11-10T09:15:39.806Z,998.53
2018-11-10T09:16:39.824Z,998.63
2018-11-10T09:17:39.884Z,998.62
2018-11-10T09:18:39.915Z,998.61
2018-11-10T09:19:39.855Z,998.65
2018-11-10T09:20:39.873Z,998.61
2018-11-10T09:21:39.958Z,998.70
2018-11-10T09:22:39.892Z,998.65
2018-11-10T09:23:39.912Z,998.71
2018-11-10T09:24:39.920Z,998.72
2018-11-10T09:25:39.945Z,998.72
2018-11-10T09:26:39.951Z,998.66
2018-11-10T09:27:39.953Z,998.70
2018-11-10T09:28:40.171Z,998.75
2018-11-10T09:29:39.982Z,998.82
2018-11-10T09:30:40.003Z,998.82
2018-11-10T09:31:40.067Z,998.78
2018-11-10T09:32:40.463Z,998.86
2018-11-10T09:33:40.062Z,998.81
2018-11-10T09:34:40.043Z,998.80
2018-11-10T09:35:40.068Z,998.82
2018-11-10T09:36:40.308Z,998.83
2018-11-10T09:37:40.085Z,998.85
2018-11-10T09:38:40.197Z,998.88
2018-11-10T09:39:40.309Z,998.88
2018-11-10T09:40:40.908Z,998.96
2018-11-10T09:41:41.141Z,998.91
2018-11-10T09:42:40.850Z,998.98
2018-11-10T09:43:41.023Z,998.96
2018-11-10T09:44:40.173Z,998.99
2018-11-10T09:46:40.204Z,999.06
2018-11-10T09:47:40.210Z,999.10
2018-11-10T09:48:40.226Z,999.15
2018-11-10T09:49:40.237Z,999.03
2018-11-10T09:50:40.300Z,999.04
2018-11-10T09:51:40.260Z,999.00
2018-11-10T09:52:40.279Z,998.99
2018-11-10T09:53:40.300Z,999.00
2018-11-10T09:54:40.315Z,999.02
2018-11-10T09:55:40.316Z,998.99
2018-11-10T09:56:40.444Z,998.98
2018-11-10T09:57:40.337Z,998.89
2018-11-10T09:58:40.629Z,998.97
2018-11-10T09:59:40.427Z,998.93
2018-11-10T10:00:40.395Z,998.95
2018-11-10T10:01:40.547Z,999.00
2018-11-10T10:02:40.793Z,998.94
2018-11-10T10:03:40.422Z,998.92
2018-11-10T10:04:40.426Z,998.97
2018-11-10T10:05:40.445Z,999.04
2018-11-10T10:06:40.464Z,999.04
2018-11-10T10:07:40.464Z,999.03
2018-11-10T10:08:40.492Z,999.02
2018-11-10T10:09:40.493Z,998.98
2018-11-10T10:10:40.509Z,998.92
2018-11-10T10:11:40.567Z,998.95
2018-11-10T10:12:40.540Z,998.97
2018-11-10T10:13:40.923Z,999.00
2018-11-10T10:14:40.567Z,998.98
2018-11-10T10:15:40.603Z,998.95
2018-11-10T10:16:40.676Z,998.92
2018-11-10T10:17:40.590Z,998.93
2018-11-10T10:18:40.604Z,998.93
2018-11-10T10:19:40.634Z,998.96
2018-11-10T10:20:40.631Z,998.93
2018-11-10T10:21:40.662Z,998.92
2018-11-10T10:22:40.656Z,998.94
2018-11-10T10:23:40.693Z,998.91
2018-11-10T10:24:40.696Z,998.91
2018-11-10T10:25:40.757Z,998.92
2018-11-10T10:26:40.707Z,998.90
2018-11-10T10:27:40.829Z,998.90
2018-11-10T10:28:40.786Z,998.95
2018-11-10T10:29:40.759Z,998.91
2018-11-10T10:30:40.763Z,998.93
2018-11-10T10:31:40.827Z,998.90
2018-11-10T10:32:40.787Z,998.90
2018-11-10T10:33:40.803Z,998.87
2018-11-10T10:34:40.962Z,998.84
2018-11-10T10:35:41.008Z,998.85
2018-11-10T10:36:40.839Z,998.77
2018-11-10T10:37:40.880Z,998.78
2018-11-10T10:38:40.866Z,998.73
2018-11-10T10:39:40.878Z,998.68
2018-11-10T10:40:40.890Z,998.73
2018-11-10T10:41:40.992Z,998.75
2018-11-10T10:42:40.972Z,998.72
2018-11-10T10:43:41.045Z,998.68
2018-11-10T10:44:41.457Z,998.74
2018-11-10T10:45:40.957Z,998.72
2018-11-10T10:46:40.971Z,998.73
2018-11-10T10:47:40.987Z,998.73
2018-11-10T10:48:41.081Z,998.79
2018-11-10T10:49:41.013Z,998.83
2018-11-10T10:50:41.024Z,998.89
2018-11-10T10:51:41.039Z,998.81
2018-11-10T10:52:41.045Z,998.74
2018-11-10T10:53:41.063Z,998.87
2018-11-10T10:54:41.076Z,998.81
2018-11-10T10:55:41.095Z,998.85
2018-11-10T10:56:41.113Z,998.84
2018-11-10T10:57:41.123Z,998.88
2018-11-10T10:58:41.128Z,998.80
2018-11-10T10:59:41.139Z,998.84
2018-11-10T11:00:41.187Z,998.78
2018-11-10T11:01:41.161Z,998.81
2018-11-10T11:02:41.232Z,998.79
2018-11-10T11:03:41.244Z,998.80
2018-11-10T11:04:41.208Z,998.82
2018-11-10T11:05:41.245Z,998.75
2018-11-10T11:06:41.264Z,998.66
2018-11-10T11:07:41.328Z,998.70
2018-11-10T11:08:41.258Z,998.65
2018-11-10T11:09:41.450Z,998.65
2018-11-10T11:10:41.281Z,998.68
2018-11-10T11:11:41.300Z,998.69
2018-11-10T11:12:41.307Z,998.66
2018-11-10T11:15:42.122Z,998.67
2018-11-10T11:16:41.725Z,998.60
2018-11-10T11:17:41.382Z,998.66
2018-11-10T11:19:41.413Z,998.62
2018-11-10T11:20:41.414Z,998.62
2018-11-10T11:21:41.483Z,998.64
2018-11-10T11:23:41.450Z,998.60
2018-11-10T11:24:41.468Z,998.65
2018-11-10T11:25:41.478Z,998.65
2018-11-10T11:26:41.492Z,998.65
2018-11-10T11:27:41.506Z,998.69
2018-11-10T11:28:41.523Z,998.65
2018-11-10T11:29:41.595Z,998.66
2018-11-10T11:30:41.555Z,998.69
2018-11-10T11:31:41.560Z,998.60
2018-11-10T11:32:41.571Z,998.69
2018-11-10T11:33:41.604Z,998.62
2018-11-10T11:34:41.601Z,998.67
2018-11-10T11:35:41.623Z,998.72
2018-11-10T11:36:41.629Z,998.66
2018-11-10T11:37:41.639Z,998.61
2018-11-10T11:38:41.673Z,998.68
2018-11-10T11:39:41.665Z,998.69
2018-11-10T11:40:41.678Z,998.70
2018-11-10T11:41:41.751Z,998.65
2018-11-10T11:42:41.703Z,998.68
2018-11-10T11:43:41.730Z,998.66
2018-11-10T11:44:41.735Z,998.68
2018-11-10T11:45:41.748Z,998.76
2018-11-10T11:46:41.760Z,998.68
2018-11-10T11:47:41.775Z,998.63
2018-11-10T11:48:42.219Z,998.63
2018-11-10T11:51:41.867Z,998.64
2018-11-10T11:52:41.841Z,998.63
2018-11-10T11:53:41.851Z,998.62
2018-11-10T11:54:41.865Z,998.59
2018-11-10T11:55:41.879Z,998.61
2018-11-10T11:56:41.894Z,998.59
2018-11-10T11:57:41.949Z,998.60
2018-11-10T11:58:41.939Z,998.59
2018-11-10T11:59:41.930Z,998.60
2018-11-10T12:00:41.944Z,998.61
2018-11-10T12:01:41.962Z,998.60
2018-11-10T12:02:41.970Z,998.61
2018-11-10T12:03:42.003Z,998.65
2018-11-10T12:04:42.088Z,998.64
2018-11-10T12:05:42.014Z,998.65
2018-11-10T12:06:42.019Z,998.60
2018-11-10T12:07:42.030Z,998.61
2018-11-10T12:08:42.048Z,998.64
2018-11-10T12:09:42.057Z,998.61
2018-11-10T12:10:42.084Z,998.58
2018-11-10T12:11:42.098Z,998.54
2018-11-10T12:12:42.095Z,998.59
2018-11-10T12:13:42.109Z,998.51
2018-11-10T12:14:42.122Z,998.51
2018-11-10T12:15:42.138Z,998.47
2018-11-10T12:16:42.191Z,998.54
2018-11-10T12:17:43.132Z,998.51
2018-11-10T12:18:42.193Z,998.51
2018-11-10T12:19:42.324Z,998.47
2018-11-10T12:20:42.294Z,998.49
2018-11-10T12:21:42.241Z,998.53
2018-11-10T12:22:42.230Z,998.52
2018-11-10T12:23:42.245Z,998.46
2018-11-10T12:24:42.297Z,998.48
2018-11-10T12:25:42.271Z,998.45
2018-11-10T12:26:42.336Z,998.40
2018-11-10T12:27:42.298Z,998.37
2018-11-10T12:28:42.308Z,998.43
2018-11-10T12:29:42.328Z,998.39
2018-11-10T12:30:42.340Z,998.37
2018-11-10T12:31:42.431Z,998.41
2018-11-10T12:32:42.365Z,998.35
2018-11-10T12:33:42.877Z,998.40
2018-11-10T12:34:42.705Z,998.33
2018-11-10T12:35:42.452Z,998.40
2018-11-10T12:36:42.417Z,998.34
2018-11-10T12:37:42.436Z,998.36
2018-11-10T12:38:42.472Z,998.38
2018-11-10T12:39:42.476Z,998.40
2018-11-10T12:40:42.471Z,998.38
2018-11-10T12:41:42.502Z,998.38
2018-11-10T12:42:42.499Z,998.40
2018-11-10T12:43:42.516Z,998.40
2018-11-10T12:44:42.525Z,998.41
2018-11-10T12:45:42.539Z,998.38
2018-11-10T12:46:42.553Z,998.42
2018-11-10T12:47:42.684Z,998.37
2018-11-10T12:48:42.580Z,998.38
2018-11-10T12:49:42.597Z,998.41
2018-11-10T12:50:42.606Z,998.39
2018-11-10T12:51:42.619Z,998.40
2018-11-10T12:53:42.762Z,998.37
2018-11-10T12:54:42.681Z,998.37
2018-11-10T12:55:42.674Z,998.32
2018-11-10T12:56:42.700Z,998.34
2018-11-10T12:57:42.697Z,998.32
2018-11-10T12:58:42.712Z,998.35
2018-11-10T12:59:42.825Z,998.35
2018-11-10T13:00:42.741Z,998.45